sensor_id;sensor_type;location;lat;lon;timestamp;noise_LAeq;noise_LA_min;noise_LA_max;noise_LA01;noise_LA95
60116;Laerm;62818;49.394;8.686;2022-09-29T00:00:03;53.93;39.46;66.14;;
60116;Laerm;62818;49.394;8.686;2022-09-29T00:01:06;50.63;41.96;59.12;;
60116;Laerm;62818;49.394;8.686;2022-09-29T00:02:09;51.04;36.45;59.59;;
60116;Laerm;62818;49.394;8.686;2022-09-29T00:03:11;50.66;42.03;59.16;;
60116;Laerm;62818;49.394;8.686;2022-09-29T00:04:16;52.95;41.38;63.34;;
60116;Laerm;62818;49.394;8.686;2022-09-29T00:05:17;57.38;42.53;73.55;;
60116;Laerm;62818;49.394;8.686;2022-09-29T00:06:21;51.00;42.03;59.37;;
60116;Laerm;62818;49.394;8.686;2022-09-29T00:07:22;51.65;42.53;59.16;;
60116;Laerm;62818;49.394;8.686;2022-09-29T00:08:27;54.12;42.53;64.35;;
60116;Laerm;62818;49.394;8.686;2022-09-29T00:09:31;50.68;42.03;58.84;;
60116;Laerm;62818;49.394;8.686;2022-09-29T00:10:34;50.78;41.53;59.43;;
60116;Laerm;62818;49.394;8.686;2022-09-29T00:11:41;50.39;41.89;58.83;;
60116;Laerm;62818;49.394;8.686;2022-09-29T00:12:44;51.60;41.61;59.42;;
60116;Laerm;62818;49.394;8.686;2022-09-29T00:13:46;50.63;42.47;58.93;;
60116;Laerm;62818;49.394;8.686;2022-09-29T00:14:47;53.16;42.03;63.48;;
60116;Laerm;62818;49.394;8.686;2022-09-29T00:15:59;50.93;42.59;59.67;;
60116;Laerm;62818;49.394;8.686;2022-09-29T00:17:05;49.99;41.46;59.21;;
60116;Laerm;62818;49.394;8.686;2022-09-29T00:18:08;50.85;41.96;58.98;;
60116;Laerm;62818;49.394;8.686;2022-09-29T00:19:10;51.06;42.71;58.51;;
60116;Laerm;62818;49.394;8.686;2022-09-29T00:20:11;52.46;42.59;61.57;;
60116;Laerm;62818;49.394;8.686;2022-09-29T00:21:17;52.30;42.47;61.95;;
60116;Laerm;62818;49.394;8.686;2022-09-29T00:22:21;51.06;42.71;58.78;;
60116;Laerm;62818;49.394;8.686;2022-09-29T00:23:25;50.46;41.89;58.74;;
60116;Laerm;62818;49.394;8.686;2022-09-29T00:24:26;53.13;42.30;63.04;;
60116;Laerm;62818;49.394;8.686;2022-09-29T00:25:28;53.16;42.93;64.06;;
60116;Laerm;62818;49.394;8.686;2022-09-29T00:26:29;50.67;40.80;59.24;;
60116;Laerm;62818;49.394;8.686;2022-09-29T00:27:30;50.02;41.55;58.32;;
60116;Laerm;62818;49.394;8.686;2022-09-29T00:28:33;53.53;42.22;62.44;;
60116;Laerm;62818;49.394;8.686;2022-09-29T00:29:34;50.90;40.71;59.29;;
60116;Laerm;62818;49.394;8.686;2022-09-29T00:30:35;51.03;41.30;59.76;;
60116;Laerm;62818;49.394;8.686;2022-09-29T00:31:40;50.86;41.68;59.54;;
60116;Laerm;62818;49.394;8.686;2022-09-29T00:32:44;51.93;40.98;59.00;;
60116;Laerm;62818;49.394;8.686;2022-09-29T00:33:47;52.65;41.22;61.07;;
60116;Laerm;62818;49.394;8.686;2022-09-29T00:34:50;52.91;40.80;63.82;;
60116;Laerm;62818;49.394;8.686;2022-09-29T00:35:59;50.67;40.89;59.12;;
60116;Laerm;62818;49.394;8.686;2022-09-29T00:37:00;53.41;41.46;62.00;;
60116;Laerm;62818;49.394;8.686;2022-09-29T00:38:01;50.46;40.33;59.43;;
60116;Laerm;62818;49.394;8.686;2022-09-29T00:39:04;50.92;40.80;59.33;;
60116;Laerm;62818;49.394;8.686;2022-09-29T00:40:08;50.83;40.98;59.28;;
60116;Laerm;62818;49.394;8.686;2022-09-29T00:41:18;50.60;40.43;59.04;;
60116;Laerm;62818;49.394;8.686;2022-09-29T00:42:23;50.72;40.89;59.20;;
60116;Laerm;62818;49.394;8.686;2022-09-29T00:44:51;52.01;41.33;60.54;;
60116;Laerm;62818;49.394;8.686;2022-09-29T00:45:27;50.63;40.71;60.72;;
60116;Laerm;62818;49.394;8.686;2022-09-29T00:48:10;53.11;40.03;61.85;;
60116;Laerm;62818;49.394;8.686;2022-09-29T00:49:56;54.12;40.33;62.61;;
60116;Laerm;62818;49.394;8.686;2022-09-29T00:50:59;55.07;40.43;62.70;;
60116;Laerm;62818;49.394;8.686;2022-09-29T00:52:15;51.46;40.33;60.77;;
60116;Laerm;62818;49.394;8.686;2022-09-29T00:53:22;55.82;41.46;63.14;;
60116;Laerm;62818;49.394;8.686;2022-09-29T00:54:28;56.29;42.09;63.34;;
60116;Laerm;62818;49.394;8.686;2022-09-29T00:55:37;55.83;42.35;64.14;;
60116;Laerm;62818;49.394;8.686;2022-09-29T00:56:43;56.55;42.16;64.30;;
60116;Laerm;62818;49.394;8.686;2022-09-29T00:59:09;52.06;41.22;61.27;;
60116;Laerm;62818;49.394;8.686;2022-09-29T01:00:16;57.25;40.98;64.25;;
60116;Laerm;62818;49.394;8.686;2022-09-29T01:01:17;54.97;41.46;61.93;;
60116;Laerm;62818;49.394;8.686;2022-09-29T01:02:22;55.07;41.14;62.12;;
60116;Laerm;62818;49.394;8.686;2022-09-29T01:03:28;56.50;41.68;63.18;;
60116;Laerm;62818;49.394;8.686;2022-09-29T01:04:34;56.00;41.38;64.15;;
60116;Laerm;62818;49.394;8.686;2022-09-29T01:05:47;55.32;41.06;62.69;;
60116;Laerm;62818;49.394;8.686;2022-09-29T01:06:58;51.96;41.06;61.41;;
60116;Laerm;62818;49.394;8.686;2022-09-29T01:08:12;51.36;41.53;58.72;;
60116;Laerm;62818;49.394;8.686;2022-09-29T01:09:19;55.83;41.26;63.08;;
60116;Laerm;62818;49.394;8.686;2022-09-29T01:10:24;55.93;41.96;62.55;;
60116;Laerm;62818;49.394;8.686;2022-09-29T01:11:29;55.79;41.38;63.45;;
60116;Laerm;62818;49.394;8.686;2022-09-29T01:12:34;51.66;41.14;59.99;;
60116;Laerm;62818;49.394;8.686;2022-09-29T01:13:35;55.85;40.33;62.51;;
60116;Laerm;62818;49.394;8.686;2022-09-29T01:14:39;43.99;41.38;59.10;;
60116;Laerm;62818;49.394;8.686;2022-09-29T01:15:40;56.21;42.29;63.63;;
60116;Laerm;62818;49.394;8.686;2022-09-29T01:16:45;55.07;40.80;62.35;;
60116;Laerm;62818;49.394;8.686;2022-09-29T01:17:46;52.73;40.33;59.93;;
60116;Laerm;62818;49.394;8.686;2022-09-29T01:18:47;50.70;41.22;58.81;;
60116;Laerm;62818;49.394;8.686;2022-09-29T01:20:10;52.64;41.22;62.12;;
60116;Laerm;62818;49.394;8.686;2022-09-29T01:21:48;53.14;40.98;69.48;;
60116;Laerm;62818;49.394;8.686;2022-09-29T01:23:32;52.65;40.80;62.56;;
60116;Laerm;62818;49.394;8.686;2022-09-29T01:32:18;54.43;40.23;62.36;;
60116;Laerm;62818;49.394;8.686;2022-09-29T01:40:26;53.95;40.98;62.70;;
60116;Laerm;62818;49.394;8.686;2022-09-29T01:41:40;53.64;41.46;63.58;;
60116;Laerm;62818;49.394;8.686;2022-09-29T01:43:19;54.05;40.71;63.46;;
60116;Laerm;62818;49.394;8.686;2022-09-29T01:44:43;53.57;40.80;62.79;;
60116;Laerm;62818;49.394;8.686;2022-09-29T01:46:12;54.57;40.13;62.90;;
60116;Laerm;62818;49.394;8.686;2022-09-29T01:47:16;55.07;40.89;62.97;;
60116;Laerm;62818;49.394;8.686;2022-09-29T01:48:31;55.80;41.03;63.77;;
60116;Laerm;62818;49.394;8.686;2022-09-29T01:49:57;55.60;41.38;63.66;;
60116;Laerm;62818;49.394;8.686;2022-09-29T01:51:11;54.98;41.46;65.42;;
60116;Laerm;62818;49.394;8.686;2022-09-29T01:52:28;55.27;41.82;63.40;;
60116;Laerm;62818;49.394;8.686;2022-09-29T01:53:41;54.91;41.96;62.72;;
60116;Laerm;62818;49.394;8.686;2022-09-29T01:55:16;52.16;41.06;63.71;;
60116;Laerm;62818;49.394;8.686;2022-09-29T01:56:40;51.88;40.23;61.16;;
60116;Laerm;62818;49.394;8.686;2022-09-29T01:57:52;54.78;40.53;62.25;;
60116;Laerm;62818;49.394;8.686;2022-09-29T01:59:09;55.29;40.62;62.99;;
60116;Laerm;62818;49.394;8.686;2022-09-29T02:00:17;56.13;41.68;63.69;;
60116;Laerm;62818;49.394;8.686;2022-09-29T02:01:23;51.56;41.89;58.69;;
60116;Laerm;62818;49.394;8.686;2022-09-29T02:02:37;54.42;42.03;66.03;;
60116;Laerm;62818;49.394;8.686;2022-09-29T02:03:47;52.37;41.14;64.95;;
60116;Laerm;62818;49.394;8.686;2022-09-29T02:04:56;50.60;41.53;59.05;;
60116;Laerm;62818;49.394;8.686;2022-09-29T02:06:13;52.42;38.67;62.46;;
60116;Laerm;62818;49.394;8.686;2022-09-29T02:07:30;50.41;40.80;59.38;;
60116;Laerm;62818;49.394;8.686;2022-09-29T02:08:40;55.02;39.92;64.67;;
60116;Laerm;62818;49.394;8.686;2022-09-29T02:09:48;56.17;42.29;63.32;;
60116;Laerm;62818;49.394;8.686;2022-09-29T02:11:07;55.31;42.24;63.79;;
60116;Laerm;62818;49.394;8.686;2022-09-29T02:12:17;56.00;42.22;63.16;;
60116;Laerm;62818;49.394;8.686;2022-09-29T02:13:23;55.73;42.98;63.13;;
60116;Laerm;62818;49.394;8.686;2022-09-29T02:14:29;57.26;43.39;64.72;;
60116;Laerm;62818;49.394;8.686;2022-09-29T02:15:37;56.37;43.19;63.89;;
60116;Laerm;62818;49.394;8.686;2022-09-29T02:16:51;57.04;42.88;63.95;;
60116;Laerm;62818;49.394;8.686;2022-09-29T02:18:04;53.74;42.65;63.23;;
60116;Laerm;62818;49.394;8.686;2022-09-29T02:19:18;50.91;42.64;60.20;;
60116;Laerm;62818;49.394;8.686;2022-09-29T02:20:22;51.07;42.59;59.72;;
60116;Laerm;62818;49.394;8.686;2022-09-29T02:21:26;52.44;42.98;61.57;;
60116;Laerm;62818;49.394;8.686;2022-09-29T02:22:27;44.85;42.71;47.70;;
60116;Laerm;62818;49.394;8.686;2022-09-29T02:23:30;55.84;43.24;62.62;;
60116;Laerm;62818;49.394;8.686;2022-09-29T02:24:33;56.24;42.29;65.56;;
60116;Laerm;62818;49.394;8.686;2022-09-29T02:25:37;55.83;34.69;64.57;;
60116;Laerm;62818;49.394;8.686;2022-09-29T02:26:39;56.69;42.98;64.29;;
60116;Laerm;62818;49.394;8.686;2022-09-29T02:27:41;53.49;45.17;60.42;;
60116;Laerm;62818;49.394;8.686;2022-09-29T02:28:47;57.00;45.89;63.67;;
60116;Laerm;62818;49.394;8.686;2022-09-29T02:29:48;57.04;46.69;63.53;;
60116;Laerm;62818;49.394;8.686;2022-09-29T02:30:51;52.34;44.83;59.90;;
60116;Laerm;62818;49.394;8.686;2022-09-29T02:31:54;52.16;44.94;59.57;;
60116;Laerm;62818;49.394;8.686;2022-09-29T02:32:58;57.60;45.86;67.26;;
60116;Laerm;62818;49.394;8.686;2022-09-29T02:34:01;57.27;45.80;63.46;;
60116;Laerm;62818;49.394;8.686;2022-09-29T02:35:10;52.62;45.20;59.83;;
60116;Laerm;62818;49.394;8.686;2022-09-29T02:37:04;52.60;45.30;62.71;;
60116;Laerm;62818;49.394;8.686;2022-09-29T02:38:52;57.48;45.63;68.10;;
60116;Laerm;62818;49.394;8.686;2022-09-29T02:51:45;55.97;44.94;63.61;;
60116;Laerm;62818;49.394;8.686;2022-09-29T02:55:36;52.96;44.47;60.69;;
60116;Laerm;62818;49.394;8.686;2022-09-29T02:57:27;56.08;45.01;65.99;;
60116;Laerm;62818;49.394;8.686;2022-09-29T02:58:38;56.08;45.27;63.32;;
60116;Laerm;62818;49.394;8.686;2022-09-29T03:00:06;55.47;45.14;65.22;;
60116;Laerm;62818;49.394;8.686;2022-09-29T03:01:08;56.72;44.97;63.47;;
60116;Laerm;62818;49.394;8.686;2022-09-29T03:02:14;57.40;44.47;64.14;;
60116;Laerm;62818;49.394;8.686;2022-09-29T03:03:15;55.68;44.73;62.25;;
60116;Laerm;62818;49.394;8.686;2022-09-29T03:04:20;53.95;44.87;63.16;;
60116;Laerm;62818;49.394;8.686;2022-09-29T03:05:27;52.80;44.80;60.04;;
60116;Laerm;62818;49.394;8.686;2022-09-29T03:06:30;54.21;44.54;62.67;;
60116;Laerm;62818;49.394;8.686;2022-09-29T03:07:35;55.06;44.54;67.55;;
60116;Laerm;62818;49.394;8.686;2022-09-29T03:08:38;58.89;44.87;67.29;;
60116;Laerm;62818;49.394;8.686;2022-09-29T03:09:39;54.04;45.36;62.84;;
60116;Laerm;62818;49.394;8.686;2022-09-29T03:10:39;53.44;44.83;63.23;;
60116;Laerm;62818;49.394;8.686;2022-09-29T03:11:40;54.86;44.97;62.81;;
60116;Laerm;62818;49.394;8.686;2022-09-29T03:12:40;53.55;44.54;63.16;;
60116;Laerm;62818;49.394;8.686;2022-09-29T03:13:41;54.92;44.35;64.75;;
60116;Laerm;62818;49.394;8.686;2022-09-29T03:14:41;55.12;45.42;64.12;;
60116;Laerm;62818;49.394;8.686;2022-09-29T03:15:47;57.22;44.90;68.95;;
60116;Laerm;62818;49.394;8.686;2022-09-29T03:16:49;54.54;45.39;62.02;;
60116;Laerm;62818;49.394;8.686;2022-09-29T03:17:58;55.21;45.69;64.01;;
60116;Laerm;62818;49.394;8.686;2022-09-29T03:18:59;56.09;45.86;65.85;;
60116;Laerm;62818;49.394;8.686;2022-09-29T03:20:03;53.60;45.23;60.78;;
60116;Laerm;62818;49.394;8.686;2022-09-29T03:21:06;57.15;45.42;66.26;;
60116;Laerm;62818;49.394;8.686;2022-09-29T03:22:06;54.57;44.87;61.19;;
60116;Laerm;62818;49.394;8.686;2022-09-29T03:23:09;57.59;45.36;65.39;;
60116;Laerm;62818;49.394;8.686;2022-09-29T03:24:10;55.57;45.48;62.65;;
60116;Laerm;62818;49.394;8.686;2022-09-29T03:25:14;57.08;45.14;65.11;;
60116;Laerm;62818;49.394;8.686;2022-09-29T03:26:14;60.24;46.07;74.76;;
60116;Laerm;62818;49.394;8.686;2022-09-29T03:27:17;55.15;44.97;61.87;;
60116;Laerm;62818;49.394;8.686;2022-09-29T03:28:18;56.97;46.43;66.43;;
60116;Laerm;62818;49.394;8.686;2022-09-29T03:29:18;57.31;45.07;64.83;;
60116;Laerm;62818;49.394;8.686;2022-09-29T03:30:24;55.77;45.33;65.69;;
60116;Laerm;62818;49.394;8.686;2022-09-29T03:31:27;54.19;44.80;61.32;;
60116;Laerm;62818;49.394;8.686;2022-09-29T03:32:27;55.91;45.20;68.32;;
60116;Laerm;62818;49.394;8.686;2022-09-29T03:33:28;55.94;45.33;63.32;;
60116;Laerm;62818;49.394;8.686;2022-09-29T03:34:35;57.24;45.01;64.97;;
60116;Laerm;62818;49.394;8.686;2022-09-29T03:35:38;55.68;44.80;68.19;;
60116;Laerm;62818;49.394;8.686;2022-09-29T03:36:38;56.65;45.30;67.11;;
60116;Laerm;62818;49.394;8.686;2022-09-29T03:37:40;55.96;45.04;64.76;;
60116;Laerm;62818;49.394;8.686;2022-09-29T03:38:43;58.28;45.63;68.56;;
60116;Laerm;62818;49.394;8.686;2022-09-29T03:39:46;56.63;44.58;66.97;;
60116;Laerm;62818;49.394;8.686;2022-09-29T03:40:47;58.11;44.73;69.24;;
60116;Laerm;62818;49.394;8.686;2022-09-29T03:41:47;56.77;46.13;65.08;;
60116;Laerm;62818;49.394;8.686;2022-09-29T03:42:48;55.36;45.01;64.75;;
60116;Laerm;62818;49.394;8.686;2022-09-29T03:43:53;64.38;45.20;78.27;;
60116;Laerm;62818;49.394;8.686;2022-09-29T03:44:54;58.41;45.54;67.02;;
60116;Laerm;62818;49.394;8.686;2022-09-29T03:45:59;57.49;45.04;67.00;;
60116;Laerm;62818;49.394;8.686;2022-09-29T03:46:59;55.44;45.63;61.98;;
60116;Laerm;62818;49.394;8.686;2022-09-29T03:48:02;58.61;45.17;67.72;;
60116;Laerm;62818;49.394;8.686;2022-09-29T03:49:03;57.92;45.45;68.33;;
60116;Laerm;62818;49.394;8.686;2022-09-29T03:50:07;59.35;45.54;67.34;;
60116;Laerm;62818;49.394;8.686;2022-09-29T03:51:10;58.13;45.11;67.29;;
60116;Laerm;62818;49.394;8.686;2022-09-29T03:52:11;55.30;44.80;63.06;;
60116;Laerm;62818;49.394;8.686;2022-09-29T03:53:12;58.49;47.10;65.71;;
60116;Laerm;62818;49.394;8.686;2022-09-29T03:54:13;58.29;47.68;66.39;;
60116;Laerm;62818;49.394;8.686;2022-09-29T03:55:17;58.67;47.55;68.33;;
60116;Laerm;62818;49.394;8.686;2022-09-29T03:56:17;57.71;45.36;68.45;;
60116;Laerm;62818;49.394;8.686;2022-09-29T03:57:20;54.03;45.01;64.69;;
60116;Laerm;62818;49.394;8.686;2022-09-29T03:58:24;59.42;46.64;66.56;;
60116;Laerm;62818;49.394;8.686;2022-09-29T03:59:29;57.97;45.39;65.28;;
60116;Laerm;62818;49.394;8.686;2022-09-29T04:00:30;58.70;47.98;65.76;;
60116;Laerm;62818;49.394;8.686;2022-09-29T04:01:34;58.44;44.94;68.53;;
60116;Laerm;62818;49.394;8.686;2022-09-29T04:02:34;56.55;46.48;65.13;;
60116;Laerm;62818;49.394;8.686;2022-09-29T04:03:35;54.17;45.17;61.72;;
60116;Laerm;62818;49.394;8.686;2022-09-29T04:04:36;59.29;49.03;66.59;;
60116;Laerm;62818;49.394;8.686;2022-09-29T04:05:39;61.69;55.87;68.02;;
60116;Laerm;62818;49.394;8.686;2022-09-29T04:06:42;60.65;49.33;66.41;;
60116;Laerm;62818;49.394;8.686;2022-09-29T04:07:45;60.86;48.48;68.83;;
60116;Laerm;62818;49.394;8.686;2022-09-29T04:08:48;58.92;49.15;67.27;;
60116;Laerm;62818;49.394;8.686;2022-09-29T04:09:52;59.51;47.20;66.31;;
60116;Laerm;62818;49.394;8.686;2022-09-29T04:10:52;58.98;45.57;68.05;;
60116;Laerm;62818;49.394;8.686;2022-09-29T04:11:53;54.51;45.37;64.25;;
60116;Laerm;62818;49.394;8.686;2022-09-29T04:12:54;57.89;45.45;64.60;;
60116;Laerm;62818;49.394;8.686;2022-09-29T04:13:57;57.60;46.15;65.61;;
60116;Laerm;62818;49.394;8.686;2022-09-29T04:15:01;54.81;46.38;63.06;;
60116;Laerm;62818;49.394;8.686;2022-09-29T04:16:05;58.17;47.40;65.72;;
60116;Laerm;62818;49.394;8.686;2022-09-29T04:17:08;60.57;49.25;68.82;;
60116;Laerm;62818;49.394;8.686;2022-09-29T04:18:09;59.50;50.08;68.23;;
60116;Laerm;62818;49.394;8.686;2022-09-29T04:19:09;61.11;52.62;69.30;;
60116;Laerm;62818;49.394;8.686;2022-09-29T04:20:12;59.01;46.73;67.70;;
60116;Laerm;62818;49.394;8.686;2022-09-29T04:21:15;57.11;47.08;68.24;;
60116;Laerm;62818;49.394;8.686;2022-09-29T04:22:19;59.07;48.87;69.88;;
60116;Laerm;62818;49.394;8.686;2022-09-29T04:23:20;58.80;49.34;66.17;;
60116;Laerm;62818;49.394;8.686;2022-09-29T04:24:23;59.25;46.66;72.34;;
60116;Laerm;62818;49.394;8.686;2022-09-29T04:25:23;55.26;45.57;62.77;;
60116;Laerm;62818;49.394;8.686;2022-09-29T04:26:24;58.51;46.73;65.99;;
60116;Laerm;62818;49.394;8.686;2022-09-29T04:27:24;59.91;46.25;67.56;;
60116;Laerm;62818;49.394;8.686;2022-09-29T04:28:34;58.13;46.93;66.38;;
60116;Laerm;62818;49.394;8.686;2022-09-29T04:29:35;59.08;46.59;67.83;;
60116;Laerm;62818;49.394;8.686;2022-09-29T04:30:37;60.02;46.15;70.12;;
60116;Laerm;62818;49.394;8.686;2022-09-29T04:31:40;56.25;45.86;66.59;;
60116;Laerm;62818;49.394;8.686;2022-09-29T04:32:43;59.83;46.73;69.75;;
60116;Laerm;62818;49.394;8.686;2022-09-29T04:33:44;59.75;48.08;66.87;;
60116;Laerm;62818;49.394;8.686;2022-09-29T04:34:44;60.62;47.57;70.99;;
60116;Laerm;62818;49.394;8.686;2022-09-29T04:35:47;59.08;46.84;69.83;;
60116;Laerm;62818;49.394;8.686;2022-09-29T04:36:48;59.86;47.65;68.30;;
60116;Laerm;62818;49.394;8.686;2022-09-29T04:37:48;58.09;46.40;66.49;;
60116;Laerm;62818;49.394;8.686;2022-09-29T04:38:49;57.63;46.82;65.72;;
60116;Laerm;62818;49.394;8.686;2022-09-29T04:39:53;60.57;45.23;69.00;;
60116;Laerm;62818;49.394;8.686;2022-09-29T04:40:58;58.24;45.01;66.27;;
60116;Laerm;62818;49.394;8.686;2022-09-29T04:42:01;54.41;43.86;61.72;;
60116;Laerm;62818;49.394;8.686;2022-09-29T04:43:03;61.05;47.02;70.61;;
60116;Laerm;62818;49.394;8.686;2022-09-29T04:44:04;63.54;51.08;69.20;;
60116;Laerm;62818;49.394;8.686;2022-09-29T04:45:05;56.63;48.91;63.47;;
60116;Laerm;62818;49.394;8.686;2022-09-29T04:46:12;57.43;46.02;66.61;;
60116;Laerm;62818;49.394;8.686;2022-09-29T04:47:13;62.14;47.65;67.84;;
60116;Laerm;62818;49.394;8.686;2022-09-29T04:48:17;60.32;46.66;72.45;;
60116;Laerm;62818;49.394;8.686;2022-09-29T04:49:20;57.48;45.91;70.25;;
60116;Laerm;62818;49.394;8.686;2022-09-29T04:50:26;60.33;46.62;70.07;;
60116;Laerm;62818;49.394;8.686;2022-09-29T04:51:26;60.39;46.59;69.16;;
60116;Laerm;62818;49.394;8.686;2022-09-29T04:52:27;56.10;46.05;64.36;;
60116;Laerm;62818;49.394;8.686;2022-09-29T04:53:27;59.47;46.62;67.42;;
60116;Laerm;62818;49.394;8.686;2022-09-29T04:54:34;61.25;47.08;68.26;;
60116;Laerm;62818;49.394;8.686;2022-09-29T04:55:37;56.93;47.63;65.91;;
60116;Laerm;62818;49.394;8.686;2022-09-29T04:56:42;60.35;48.00;68.56;;
60116;Laerm;62818;49.394;8.686;2022-09-29T04:57:45;61.10;48.58;69.23;;
60116;Laerm;62818;49.394;8.686;2022-09-29T04:58:52;61.65;48.76;72.85;;
60116;Laerm;62818;49.394;8.686;2022-09-29T04:59:54;59.12;46.59;79.00;;
60116;Laerm;62818;49.394;8.686;2022-09-29T05:01:07;60.67;46.69;68.28;;
60116;Laerm;62818;49.394;8.686;2022-09-29T05:02:11;60.71;47.14;69.08;;
60116;Laerm;62818;49.394;8.686;2022-09-29T05:03:13;60.27;50.72;67.48;;
60116;Laerm;62818;49.394;8.686;2022-09-29T05:04:16;59.61;48.60;68.12;;
60116;Laerm;62818;49.394;8.686;2022-09-29T05:05:17;61.46;49.71;68.15;;
60116;Laerm;62818;49.394;8.686;2022-09-29T05:06:20;60.13;49.12;69.57;;
60116;Laerm;62818;49.394;8.686;2022-09-29T05:07:23;58.05;47.40;66.08;;
60116;Laerm;62818;49.394;8.686;2022-09-29T05:08:24;62.74;51.05;68.73;;
60116;Laerm;62818;49.394;8.686;2022-09-29T05:09:24;60.59;48.13;68.76;;
60116;Laerm;62818;49.394;8.686;2022-09-29T05:10:25;58.17;48.71;64.37;;
60116;Laerm;62818;49.394;8.686;2022-09-29T05:11:26;61.48;50.38;68.30;;
60116;Laerm;62818;49.394;8.686;2022-09-29T05:12:33;62.17;50.83;71.04;;
60116;Laerm;62818;49.394;8.686;2022-09-29T05:13:35;58.29;47.96;64.40;;
60116;Laerm;62818;49.394;8.686;2022-09-29T05:14:35;61.16;47.84;67.77;;
60116;Laerm;62818;49.394;8.686;2022-09-29T05:15:38;61.07;52.64;66.67;;
60116;Laerm;62818;49.394;8.686;2022-09-29T05:16:41;57.86;46.87;65.37;;
60116;Laerm;62818;49.394;8.686;2022-09-29T05:17:44;61.77;48.20;67.96;;
60116;Laerm;62818;49.394;8.686;2022-09-29T05:18:45;61.25;50.76;68.66;;
60116;Laerm;62818;49.394;8.686;2022-09-29T05:19:47;60.08;47.86;68.62;;
60116;Laerm;62818;49.394;8.686;2022-09-29T05:20:48;61.91;50.52;69.36;;
60116;Laerm;62818;49.394;8.686;2022-09-29T05:21:55;60.78;48.08;67.14;;
60116;Laerm;62818;49.394;8.686;2022-09-29T05:22:57;61.62;47.93;73.66;;
60116;Laerm;62818;49.394;8.686;2022-09-29T05:24:00;58.88;46.62;66.00;;
60116;Laerm;62818;49.394;8.686;2022-09-29T05:25:05;61.24;52.36;66.46;;
60116;Laerm;62818;49.394;8.686;2022-09-29T05:26:09;60.59;49.43;69.04;;
60116;Laerm;62818;49.394;8.686;2022-09-29T05:27:10;60.33;47.38;68.91;;
60116;Laerm;62818;49.394;8.686;2022-09-29T05:28:14;62.80;49.51;69.98;;
60116;Laerm;62818;49.394;8.686;2022-09-29T05:29:14;63.17;52.86;69.01;;
60116;Laerm;62818;49.394;8.686;2022-09-29T05:30:15;61.32;48.99;67.42;;
60116;Laerm;62818;49.394;8.686;2022-09-29T05:31:18;60.33;49.25;67.87;;
60116;Laerm;62818;49.394;8.686;2022-09-29T05:32:21;63.48;50.86;70.85;;
60116;Laerm;62818;49.394;8.686;2022-09-29T05:33:24;60.98;48.70;68.17;;
60116;Laerm;62818;49.394;8.686;2022-09-29T05:34:24;61.50;50.31;67.79;;
60116;Laerm;62818;49.394;8.686;2022-09-29T05:35:28;62.54;54.66;67.29;;
60116;Laerm;62818;49.394;8.686;2022-09-29T05:36:28;62.85;49.88;71.35;;
60116;Laerm;62818;49.394;8.686;2022-09-29T05:37:31;61.51;48.92;68.73;;
60116;Laerm;62818;49.394;8.686;2022-09-29T05:38:33;62.42;55.65;66.99;;
60116;Laerm;62818;49.394;8.686;2022-09-29T05:39:36;64.24;55.39;74.07;;
60116;Laerm;62818;49.394;8.686;2022-09-29T05:40:41;61.58;49.64;66.88;;
60116;Laerm;62818;49.394;8.686;2022-09-29T05:41:43;62.75;51.32;69.10;;
60116;Laerm;62818;49.394;8.686;2022-09-29T05:42:44;63.78;52.29;69.95;;
60116;Laerm;62818;49.394;8.686;2022-09-29T05:43:45;60.25;50.26;66.45;;
60116;Laerm;62818;49.394;8.686;2022-09-29T05:44:48;60.57;47.79;66.78;;
60116;Laerm;62818;49.394;8.686;2022-09-29T05:45:49;62.40;51.93;68.73;;
60116;Laerm;62818;49.394;8.686;2022-09-29T05:46:49;60.29;48.13;66.87;;
60116;Laerm;62818;49.394;8.686;2022-09-29T05:47:50;59.84;50.93;65.19;;
60116;Laerm;62818;49.394;8.686;2022-09-29T05:48:54;62.40;54.45;67.49;;
60116;Laerm;62818;49.394;8.686;2022-09-29T05:49:54;61.66;50.98;67.93;;
60116;Laerm;62818;49.394;8.686;2022-09-29T05:50:56;59.73;49.90;67.10;;
60116;Laerm;62818;49.394;8.686;2022-09-29T05:52:00;61.92;54.79;67.90;;
60116;Laerm;62818;49.394;8.686;2022-09-29T05:53:04;60.97;48.76;70.60;;
60116;Laerm;62818;49.394;8.686;2022-09-29T05:54:04;60.36;50.36;67.39;;
60116;Laerm;62818;49.394;8.686;2022-09-29T05:55:08;61.92;48.51;66.64;;
60116;Laerm;62818;49.394;8.686;2022-09-29T05:56:15;63.14;48.91;68.65;;
60116;Laerm;62818;49.394;8.686;2022-09-29T05:57:22;59.94;48.05;66.37;;
60116;Laerm;62818;49.394;8.686;2022-09-29T05:58:27;59.46;49.24;67.14;;
60116;Laerm;62818;49.394;8.686;2022-09-29T05:59:28;62.04;53.32;70.08;;
60116;Laerm;62818;49.394;8.686;2022-09-29T06:00:28;60.78;47.42;68.21;;
60116;Laerm;62818;49.394;8.686;2022-09-29T06:01:33;59.40;46.33;67.74;;
60116;Laerm;62818;49.394;8.686;2022-09-29T06:02:33;61.53;52.11;67.57;;
60116;Laerm;62818;49.394;8.686;2022-09-29T06:03:35;61.60;47.03;69.20;;
60116;Laerm;62818;49.394;8.686;2022-09-29T06:04:38;59.49;48.94;66.01;;
60116;Laerm;62818;49.394;8.686;2022-09-29T06:05:39;61.28;50.75;67.86;;
60116;Laerm;62818;49.394;8.686;2022-09-29T06:06:40;62.25;49.67;68.71;;
60116;Laerm;62818;49.394;8.686;2022-09-29T06:07:43;60.32;47.67;67.23;;
60116;Laerm;62818;49.394;8.686;2022-09-29T06:08:44;61.70;46.20;68.42;;
60116;Laerm;62818;49.394;8.686;2022-09-29T06:09:48;63.25;47.48;70.10;;
60116;Laerm;62818;49.394;8.686;2022-09-29T06:10:49;59.17;44.80;71.00;;
60116;Laerm;62818;49.394;8.686;2022-09-29T06:11:51;60.54;49.06;68.61;;
60116;Laerm;62818;49.394;8.686;2022-09-29T06:12:52;61.90;53.75;67.80;;
60116;Laerm;62818;49.394;8.686;2022-09-29T06:13:54;59.94;47.03;68.56;;
60116;Laerm;62818;49.394;8.686;2022-09-29T06:14:55;56.03;42.82;64.13;;
60116;Laerm;62818;49.394;8.686;2022-09-29T06:15:58;59.91;45.63;65.84;;
60116;Laerm;62818;49.394;8.686;2022-09-29T06:17:01;59.97;44.15;68.59;;
60116;Laerm;62818;49.394;8.686;2022-09-29T06:18:04;59.59;45.20;69.62;;
60116;Laerm;62818;49.394;8.686;2022-09-29T06:19:05;65.37;54.73;79.96;;
60116;Laerm;62818;49.394;8.686;2022-09-29T06:20:08;62.30;50.39;67.88;;
60116;Laerm;62818;49.394;8.686;2022-09-29T06:21:12;57.75;46.80;69.32;;
60116;Laerm;62818;49.394;8.686;2022-09-29T06:22:16;61.63;47.50;70.63;;
60116;Laerm;62818;49.394;8.686;2022-09-29T06:23:16;63.55;55.51;75.13;;
60116;Laerm;62818;49.394;8.686;2022-09-29T06:24:20;57.78;46.28;67.12;;
60116;Laerm;62818;49.394;8.686;2022-09-29T06:25:22;60.32;48.25;70.14;;
60116;Laerm;62818;49.394;8.686;2022-09-29T06:26:24;60.33;45.97;66.10;;
60116;Laerm;62818;49.394;8.686;2022-09-29T06:27:27;58.79;45.83;66.03;;
60116;Laerm;62818;49.394;8.686;2022-09-29T06:28:29;57.30;45.17;67.59;;
60116;Laerm;62818;49.394;8.686;2022-09-29T06:29:29;60.56;47.84;66.94;;
60116;Laerm;62818;49.394;8.686;2022-09-29T06:30:33;59.80;48.29;66.03;;
60116;Laerm;62818;49.394;8.686;2022-09-29T06:31:34;56.22;46.52;62.89;;
60116;Laerm;62818;49.394;8.686;2022-09-29T06:32:34;57.17;45.57;62.75;;
60116;Laerm;62818;49.394;8.686;2022-09-29T06:33:38;59.91;46.06;68.86;;
60116;Laerm;62818;49.394;8.686;2022-09-29T06:34:41;57.24;44.15;66.84;;
60116;Laerm;62818;49.394;8.686;2022-09-29T06:36:06;60.91;46.38;67.64;;
60116;Laerm;62818;49.394;8.686;2022-09-29T06:37:28;60.16;49.16;67.14;;